AirNav   TITAN Aviation Fuels
 
 370 users online  

25II GM Heliport
Aboite, Indiana, USA

GOING TO ABOITE?


FAA INFORMATION EFFECTIVE 22 APRIL 2021

Location

FAA Identifier: 25II
Lat/Long: 40-57-58.1700N 085-17-26.9020W
40-57.969500N 085-17.448367W
40.9661583,-85.2908061
(estimated)
Elevation: 837 ft. / 255 m (estimated)
Variation: 03W (1985)
From city: 3 miles NW of ABOITE, IN
Time zone: UTC -4 (UTC -5 during Standard Time)
Zip code: 46783

Heliport Operations

Heliport use: Private use. Permission required prior to landing
Activation date: 01/1987
Control tower: no
ARTCC: CHICAGO CENTER
FSS: TERRE HAUTE FLIGHT SERVICE STATION
Attendance: UNATNDD
Wind indicator: yes
Segmented circle: no

Heliport Communications

WX ASOS at FWA (4 nm E): PHONE 260-479-6621
WX AWOS-3PT at HHG (10 nm SW): 126.575 (260-454-1927)
WX AWOS-3 at SMD (12 nm NE): 124.55 (260-490-4030)

Nearby radio navigation aids

VOR radial/distance  VOR name  Freq  Var
FWAr267/4.7FORT WAYNE VORTAC117.8006W
OLKr154/(19.3)WEBSTER LAKE VOR110.4003W
MZZr035/33.4MARION VOR/DME108.6003W

Heliport Services

Runway Information

Helipad H1

Dimensions: 80 x 80 ft. / 24 x 24 m
Surface: concrete, in good condition
Runway edge lights: medium intensity
Traffic pattern: leftleft

Heliport Ownership and Management from official FAA records

Ownership: Privately-owned
Owner: GENERAL MOTORS CORP/TRUCK/BUS
12200 LAFAYETTE CENTER RD
ROANOKE, IN 46783
Phone 260-673-2345
Manager: GENERAL MOTORS CORP/TRUCK/BUS
12200 LAFAYETTE CENTER RD
ROANOKE, IN 46783
Phone 260-673-2345
PERSONNEL/SAFETY & SECURITY DEPT, CHARLES LOGOMASINI, 12200 LAFAYETTE CENTER RD, ROANOKE, IN 46783, 260-673-2080.

Additional Remarks

FOR CD CTC CHICAGO ARTCC AT 630-906-8921.

Instrument Procedures

There are no published instrument procedures at 25II.

Some nearby airports with instrument procedures:

KFWA - Fort Wayne International Airport (4 nm E)
KHHG - Huntington Municipal Airport (10 nm SW)
KSMD - Smith Field Airport (12 nm NE)
KGWB - De Kalb County Airport (23 nm NE)
KIWH - Wabash Municipal Airport (26 nm SW)
 
Loc | Ops | Rwys | IFR | FBO | Links
Com | Nav | Svcs | Stats | Notes
Area around 25II (GM Heliport)
 
Road maps at: MapQuest Bing Google
 
Aerial photo
No photo
 
Sectional chart

 
Airport distance calculator
Flying to GM Heliport? Find the distance to fly.

From to 25II

Sunrise and sunset
Times for 11-May-2021
 Local
(UTC-4)
 Zulu
(UTC)
Morning civil twilight05:5809:58
Sunrise06:2810:28
Sunset20:4700:47
Evening civil twilight21:1801:18

Current date and time
Zulu (UTC)  11-May-2021 08:00:11
Local (UTC-4)  11-May-2021 04:00:11
 
METAR
KFWA 
4nm E 
110754Z 35008KT 10SM FEW100 BKN130 05/M01 A3019 RMK AO2 SLP228 T00501011 $
KHHG 
10nm SW 
110735Z AUTO 35004KT 10SM BKN100 05/M02 A3020 RMK AO2 T00511018
KSMD 
12nm NE 
110735Z AUTO 34004KT 10SM BKN110 05/M01 A3019 RMK A01
TAF
KFWA 
4nm E 
110520Z 1106/1206 35007KT P6SM BKN090 FM111500 33012G20KT P6SM SCT045 FM120000 33003KT P6SM SKC
NOTAMs
Click for the latest NOTAMs
NOTAMs are issued by the DoD/FAA and will open in a separate window not controlled by AirNav.

 

 
 

Would you like to see your business listed on this page?

 If your business provides an interesting product or service to pilots, flight crews, aircraft, or users of the GM Heliport, you should consider listing it here.  To start the listing process, click on the button below
 
Add a business
 

Other Pages about GM Heliport

Update a link
 
Copyright © AirNav, LLC. All rights reserved. Privacy Policy  Contact